Time;durP1;ratioP1;P1;durP2;ratioP2;P2;SDS_P1;SDS_P2;PMS_P1;PMS_P2;Temp;Humidity;BMP_temperature;BMP_pressure;BME280_temperature;BME280_humidity;BME280_pressure;Samples;Min_cycle;Max_cycle;Signal;HPM_P1;HPM_P2
2022/09/25 00:01:19;;;;;;;7.47;4.90;;;;;;;18.72;65.12;99936.22;5032456;28;20179;-67
2022/09/25 00:03:44;;;;;;;6.70;3.90;;;;;;;18.76;64.98;99934.22;5024512;28;20422;-67
2022/09/25 00:06:15;;;;;;;6.90;4.30;;;;;;;18.79;64.86;99941.19;5034881;28;20558;-67
2022/09/25 00:08:40;;;;;;;6.47;4.23;;;;;;;18.78;64.17;99942.44;5036074;28;20638;-67
2022/09/25 00:11:07;;;;;;;6.87;4.67;;;;;;;18.80;64.69;99942.84;5051718;28;20485;-66
2022/09/25 00:13:33;;;;;;;7.43;5.07;;;;;;;18.80;64.84;99943.69;5032391;28;20219;-67
2022/09/25 00:15:58;;;;;;;6.67;4.63;;;;;;;18.82;64.74;99938.38;5032290;28;20905;-67
2022/09/25 00:21:16;;;;;;;7.13;4.60;;;;;;;18.81;64.81;99930.22;5024039;28;20193;-67
2022/09/25 00:23:43;;;;;;;6.30;4.37;;;;;;;18.79;64.78;99930.59;5032445;28;20430;-66
2022/09/25 00:26:09;;;;;;;7.10;4.83;;;;;;;18.80;64.42;99920.81;4999218;28;20189;-67
2022/09/25 00:28:35;;;;;;;6.37;4.10;;;;;;;18.82;64.87;99921.22;5031984;28;20407;-66
2022/09/25 00:31:01;;;;;;;6.50;4.70;;;;;;;18.83;64.61;99925.75;5015576;28;20197;-66
2022/09/25 00:33:27;;;;;;;10.87;4.70;;;;;;;18.86;64.46;99927.00;5033245;28;20421;-67
2022/09/25 00:35:52;;;;;;;6.33;4.23;;;;;;;18.83;64.55;99916.34;5031224;28;20415;-67
2022/09/25 00:38:18;;;;;;;5.73;4.00;;;;;;;18.84;64.62;99920.84;5017505;28;20262;-67
2022/09/25 00:40:43;;;;;;;6.40;4.33;;;;;;;18.83;64.56;99910.63;5050550;28;20611;-67
2022/09/25 00:43:15;;;;;;;7.67;4.10;;;;;;;18.83;64.59;99907.75;5051605;28;20167;-67
2022/09/25 00:45:41;;;;;;;5.90;4.17;;;;;;;18.81;64.57;99902.41;5032951;28;20186;-66
2022/09/25 00:48:10;;;;;;;5.70;4.50;;;;;;;18.83;64.78;99911.44;5050797;28;20410;-67
2022/09/25 00:50:56;;;;;;;7.77;4.77;;;;;;;18.82;64.69;99911.84;5049200;28;20486;-66
2022/09/25 00:53:27;;;;;;;5.80;4.10;;;;;;;18.81;64.67;99913.84;5031854;28;20426;-67
2022/09/25 00:55:53;;;;;;;5.63;4.60;;;;;;;18.82;64.55;99906.91;5014511;28;20427;-67
2022/09/25 00:58:20;;;;;;;6.63;4.17;;;;;;;18.79;64.82;99906.88;5031436;28;20429;-68
2022/09/25 01:00:45;;;;;;;5.33;4.10;;;;;;;18.80;64.77;99911.38;5031614;28;20226;-68
2022/09/25 01:03:10;;;;;;;5.77;4.13;;;;;;;18.80;64.67;99908.53;5037006;28;20414;-68
2022/09/25 01:05:37;;;;;;;6.10;3.70;;;;;;;18.82;64.60;99906.13;5050636;28;20179;-68
2022/09/25 01:08:04;;;;;;;9.33;4.60;;;;;;;18.83;64.59;99900.00;5051314;28;20164;-68
2022/09/25 01:10:30;;;;;;;6.37;4.20;;;;;;;18.80;65.05;99897.09;5033439;28;20492;-68
2022/09/25 01:12:56;;;;;;;5.93;3.93;;;;;;;18.80;64.48;99892.19;5051544;28;20545;-68
2022/09/25 01:15:35;;;;;;;5.47;3.73;;;;;;;18.82;64.58;99900.38;5018122;28;20182;-68
2022/09/25 01:18:01;;;;;;;5.43;3.97;;;;;;;18.78;64.47;99899.53;5053371;28;20695;-68
2022/09/25 01:20:48;;;;;;;6.87;4.07;;;;;;;18.79;64.65;99906.88;5053023;28;20433;-68
2022/09/25 01:23:26;;;;;;;5.97;3.57;;;;;;;18.80;64.63;99908.53;5051427;28;20635;-68
2022/09/25 01:26:32;;;;;;;7.43;4.13;;;;;;;18.79;64.72;99892.59;5051799;28;20433;-68
2022/09/25 01:29:10;;;;;;;5.30;4.03;;;;;;;18.80;64.77;99902.81;5018908;28;20425;-68
2022/09/25 01:31:53;;;;;;;5.10;3.63;;;;;;;18.81;64.70;99901.63;5052391;28;20469;-68
2022/09/25 01:34:25;;;;;;;5.67;3.83;;;;;;;18.77;64.71;99898.69;5051767;28;20874;-68
2022/09/25 01:37:05;;;;;;;5.20;3.53;;;;;;;18.78;64.36;99900.38;5051211;28;20874;-68
2022/09/25 01:39:34;;;;;;;6.60;3.33;;;;;;;18.79;64.85;99902.00;5016532;28;20430;-68
2022/09/25 01:42:30;;;;;;;6.63;3.87;;;;;;;18.77;64.78;99898.69;5014996;28;20921;-68
2022/09/25 01:44:58;;;;;;;4.97;3.53;;;;;;;18.77;64.59;99897.88;5028050;28;20435;-68
2022/09/25 01:47:26;;;;;;;9.07;4.03;;;;;;;18.76;64.88;99899.91;5031290;28;20477;-68
2022/09/25 01:49:57;;;;;;;5.30;3.53;;;;;;;18.81;64.61;99898.75;5033573;28;20475;-68
2022/09/25 01:52:26;;;;;;;5.60;3.50;;;;;;;18.78;64.72;99888.91;5034719;28;20861;-68
2022/09/25 01:54:54;;;;;;;7.50;3.90;;;;;;;18.79;64.81;99893.41;5034891;28;20456;-68
2022/09/25 01:57:22;;;;;;;5.00;3.10;;;;;;;18.77;64.79;99886.44;5033571;28;20410;-68
2022/09/25 01:59:58;;;;;;;6.17;3.53;;;;;;;18.76;64.25;99891.34;5034432;28;20406;-68
2022/09/25 02:02:26;;;;;;;5.27;3.87;;;;;;;18.77;64.80;99889.31;5051040;28;20409;-68
2022/09/25 02:04:56;;;;;;;5.90;3.77;;;;;;;18.79;65.02;99889.72;5067652;28;20426;-69
2022/09/25 02:07:26;;;;;;;6.13;3.40;;;;;;;18.79;64.73;99884.84;5017998;28;20428;-68
2022/09/25 02:09:53;;;;;;;4.70;3.37;;;;;;;18.79;64.90;99878.28;5051181;28;20809;-68
2022/09/25 02:12:30;;;;;;;5.37;3.43;;;;;;;18.78;64.61;99888.91;5034501;28;20871;-68
2022/09/25 02:14:57;;;;;;;7.13;3.70;;;;;;;18.77;64.82;99886.44;5051154;28;20452;-68
2022/09/25 02:20:32;;;;;;;5.10;3.57;;;;;;;18.77;64.73;99887.25;5050517;28;20784;-68
2022/09/25 02:23:07;;;;;;;4.70;3.03;;;;;;;18.77;64.56;99892.97;5051972;28;20411;-68
2022/09/25 02:25:41;;;;;;;4.97;3.87;;;;;;;18.78;64.88;99882.38;5037878;28;20417;-68
2022/09/25 02:28:07;;;;;;;4.77;3.27;;;;;;;18.78;64.61;99885.22;5055031;28;20472;-68
2022/09/25 02:30:32;;;;;;;4.90;3.50;;;;;;;18.79;64.84;99881.16;5053760;28;20410;-68
2022/09/25 02:32:58;;;;;;;4.80;3.60;;;;;;;18.77;64.84;99881.53;5053133;28;20677;-68
2022/09/25 02:35:24;;;;;;;5.17;3.67;;;;;;;18.78;64.49;99876.66;5036173;28;20714;-68
2022/09/25 02:37:50;;;;;;;4.90;3.50;;;;;;;18.80;64.49;99886.47;5036919;28;20159;-68
2022/09/25 02:40:16;;;;;;;6.33;3.57;;;;;;;18.81;65.05;99885.25;5037628;28;20449;-68
2022/09/25 02:42:44;;;;;;;4.90;3.17;;;;;;;18.79;64.75;99881.97;5038357;28;20415;-68
2022/09/25 02:45:16;;;;;;;5.70;3.60;;;;;;;18.79;64.66;99879.13;5054871;28;20218;-68
2022/09/25 02:48:14;;;;;;;5.60;3.37;;;;;;;18.78;64.65;99888.91;5054378;28;20414;-68
2022/09/25 02:51:12;;;;;;;4.60;3.60;;;;;;;18.80;64.64;99894.22;5042012;28;20497;-68
2022/09/25 02:54:07;;;;;;;5.10;3.40;;;;;;;18.76;64.52;99891.34;5054416;28;20411;-68
2022/09/25 02:57:03;;;;;;;5.17;3.30;;;;;;;18.80;64.84;99889.34;5030164;28;20430;-68
2022/09/25 02:59:33;;;;;;;5.10;3.27;;;;;;;18.81;64.57;99884.47;5034243;28;20922;-68
2022/09/25 03:01:59;;;;;;;4.40;2.97;;;;;;;18.78;64.74;99880.34;5034388;28;20408;-68
2022/09/25 03:04:25;;;;;;;6.90;3.63;;;;;;;18.79;64.34;99881.97;5031729;28;20494;-68
2022/09/25 03:06:50;;;;;;;4.10;2.87;;;;;;;18.79;64.72;99884.84;5036861;28;20221;-68
2022/09/25 03:09:15;;;;;;;4.70;3.00;;;;;;;18.78;64.40;99876.66;5036516;28;20430;-68
2022/09/25 03:11:42;;;;;;;4.53;3.40;;;;;;;18.80;64.62;99877.06;5053779;28;20223;-68
2022/09/25 03:14:07;;;;;;;5.87;4.03;;;;;;;18.80;64.36;99872.19;5053863;28;20171;-68
2022/09/25 03:16:47;;;;;;;4.87;3.50;;;;;;;18.81;64.53;99873.00;5053257;28;20859;-68
2022/09/25 03:19:13;;;;;;;4.77;3.30;;;;;;;18.80;64.58;99869.31;5038922;28;20167;-68
2022/09/25 03:21:38;;;;;;;4.70;3.30;;;;;;;18.79;64.63;99872.56;5036657;28;20422;-68
2022/09/25 03:24:04;;;;;;;5.07;3.70;;;;;;;18.80;64.51;99883.63;5054175;28;20260;-68
2022/09/25 03:26:29;;;;;;;6.23;3.67;;;;;;;18.81;64.82;99887.31;5036494;28;20801;-68
2022/09/25 03:28:55;;;;;;;5.20;3.10;;;;;;;18.80;64.41;99883.63;5053509;28;20187;-68
2022/09/25 03:31:20;;;;;;;4.77;3.27;;;;;;;18.80;64.39;99886.47;5053253;28;20195;-68
2022/09/25 03:33:46;;;;;;;5.50;3.30;;;;;;;18.82;64.44;99888.94;5037176;28;20179;-68
2022/09/25 03:36:15;;;;;;;4.70;2.90;;;;;;;18.81;64.53;99882.41;5054647;28;20176;-68
2022/09/25 03:38:41;;;;;;;4.10;3.03;;;;;;;18.80;64.61;99880.75;5053506;28;20176;-68
2022/09/25 03:41:08;;;;;;;5.27;3.10;;;;;;;18.79;64.61;99881.97;5055348;28;20429;-68
2022/09/25 03:43:40;;;;;;;4.07;2.90;;;;;;;18.79;64.76;99884.84;5020143;28;20250;-68
2022/09/25 03:46:07;;;;;;;4.47;3.23;;;;;;;18.80;64.81;99892.19;5036574;28;20584;-68
2022/09/25 03:48:33;;;;;;;5.93;3.20;;;;;;;18.76;64.62;99888.47;5037231;28;20965;-68
2022/09/25 03:50:59;;;;;;;5.00;3.50;;;;;;;18.79;64.53;99881.97;5053025;28;20457;-68
2022/09/25 03:53:25;;;;;;;4.67;3.40;;;;;;;18.77;64.58;99880.72;5040832;28;20213;-68
2022/09/25 03:55:51;;;;;;;3.73;2.90;;;;;;;18.77;64.69;99889.31;5067621;28;20414;-68
2022/09/25 03:58:16;;;;;;;3.80;3.10;;;;;;;18.78;64.77;99876.66;5053163;28;20171;-68
2022/09/25 04:00:43;;;;;;;3.73;2.67;;;;;;;18.76;64.84;99877.03;5036809;28;20524;-68
2022/09/25 04:03:08;;;;;;;5.37;2.83;;;;;;;18.77;64.48;99880.72;5036575;28;20631;-68
2022/09/25 04:05:34;;;;;;;4.60;3.20;;;;;;;18.74;64.63;99875.78;5053675;28;20398;-68
2022/09/25 04:08:00;;;;;;;4.90;3.10;;;;;;;18.74;64.62;99876.63;5054556;28;20577;-68
2022/09/25 04:10:26;;;;;;;5.33;3.37;;;;;;;18.74;64.58;99879.47;5052477;28;20442;-68
2022/09/25 04:12:53;;;;;;;3.93;3.00;;;;;;;18.76;64.66;99873.38;5052304;28;20203;-68
2022/09/25 04:15:21;;;;;;;3.70;2.83;;;;;;;18.75;64.65;99878.25;5035356;28;20453;-68
2022/09/25 04:17:47;;;;;;;5.53;3.07;;;;;;;18.77;64.70;99877.88;5050401;28;20421;-68
2022/09/25 04:20:12;;;;;;;4.33;3.27;;;;;;;18.77;64.76;99887.25;5035296;28;20410;-68
2022/09/25 04:22:38;;;;;;;5.27;3.27;;;;;;;18.81;64.54;99879.53;5052198;28;20641;-68
2022/09/25 04:25:04;;;;;;;3.87;2.87;;;;;;;18.83;64.41;99874.25;5052327;28;20187;-68
2022/09/25 04:27:29;;;;;;;3.77;2.60;;;;;;;18.85;64.33;99882.44;5035274;28;20176;-68
2022/09/25 04:29:55;;;;;;;3.50;2.67;;;;;;;18.88;64.00;99876.78;5051855;28;20175;-68
2022/09/25 04:35:04;;;;;;;5.03;2.90;;;;;;;18.91;63.93;99881.69;5053747;28;20253;-68
2022/09/25 04:37:29;;;;;;;4.40;2.73;;;;;;;18.94;64.23;99874.34;5052739;28;20580;-68
2022/09/25 04:39:55;;;;;;;3.70;2.60;;;;;;;18.97;64.12;99880.09;5031578;28;20176;-68
2022/09/25 04:42:23;;;;;;;4.43;3.03;;;;;;;18.98;63.95;99866.63;5014811;28;20176;-68
2022/09/25 04:44:52;;;;;;;4.33;3.00;;;;;;;18.94;64.15;99868.63;5029826;28;20400;-68
2022/09/25 04:47:18;;;;;;;4.40;2.87;;;;;;;18.94;64.15;99874.34;5013227;28;20833;-68
2022/09/25 04:49:43;;;;;;;4.73;2.90;;;;;;;18.98;63.95;99876.06;5029569;28;20438;-68
2022/09/25 04:52:11;;;;;;;3.90;2.90;;;;;;;18.98;64.02;99881.78;5044668;28;20191;-68
2022/09/25 04:54:37;;;;;;;4.07;3.23;;;;;;;19.01;63.63;99886.69;5016830;28;20176;-68
2022/09/25 04:57:02;;;;;;;6.20;3.50;;;;;;;18.98;63.89;99881.78;5050422;28;20475;-68
2022/09/25 04:59:28;;;;;;;3.63;2.30;;;;;;;18.99;64.27;99885.44;5049894;28;20514;-68
2022/09/25 05:01:53;;;;;;;3.60;2.57;;;;;;;18.94;63.93;99885.78;5052294;28;20156;-68
2022/09/25 05:04:19;;;;;;;4.37;2.70;;;;;;;18.97;64.10;99891.53;5050000;28;20507;-68
2022/09/25 05:06:44;;;;;;;4.30;2.97;;;;;;;18.96;64.04;99887.03;5051427;28;20176;-68
2022/09/25 05:09:09;;;;;;;5.63;2.67;;;;;;;18.91;64.18;99884.53;5052433;28;20222;-68
2022/09/25 05:11:35;;;;;;;4.97;3.10;;;;;;;18.90;64.43;99894.34;5051947;28;20725;-68
2022/09/25 05:14:01;;;;;;;2.87;2.27;;;;;;;18.88;64.34;99887.38;5051769;28;20167;-68
2022/09/25 05:16:27;;;;;;;3.90;2.93;;;;;;;18.91;64.18;99895.97;5051609;28;20171;-68
2022/09/25 05:18:53;;;;;;;4.00;2.60;;;;;;;18.91;64.25;99898.03;5051805;28;20167;-68
2022/09/25 05:21:18;;;;;;;4.07;2.90;;;;;;;18.91;64.13;99893.13;5052075;28;20395;-68
2022/09/25 05:23:44;;;;;;;4.30;2.60;;;;;;;18.89;64.28;99895.56;5033890;28;20225;-68
2022/09/25 05:26:09;;;;;;;5.43;3.20;;;;;;;18.90;64.10;99891.47;5051370;28;20171;-68
2022/09/25 05:28:35;;;;;;;3.60;2.77;;;;;;;18.89;64.43;99894.72;5050153;28;20494;-68
2022/09/25 05:31:03;;;;;;;3.97;2.83;;;;;;;18.88;64.36;99896.78;5050299;28;20179;-68
2022/09/25 05:33:30;;;;;;;4.60;3.10;;;;;;;18.87;64.14;99892.25;5034549;28;20176;-68
2022/09/25 05:36:00;;;;;;;3.53;2.67;;;;;;;18.88;64.28;99890.25;5049601;28;20418;-68
2022/09/25 05:38:26;;;;;;;4.27;2.77;;;;;;;18.86;64.30;99887.75;5051168;28;20943;-68
2022/09/25 05:40:52;;;;;;;4.60;2.77;;;;;;;18.88;64.21;99890.25;5051570;28;20414;-68
2022/09/25 05:43:17;;;;;;;3.80;3.00;;;;;;;18.86;64.43;99889.81;5051121;28;20410;-68
2022/09/25 05:45:43;;;;;;;3.10;2.30;;;;;;;18.88;64.07;99895.97;5050730;28;20277;-68
2022/09/25 05:48:08;;;;;;;4.83;2.83;;;;;;;18.89;64.37;99897.59;5050625;28;20180;-68
2022/09/25 05:50:34;;;;;;;3.20;2.50;;;;;;;18.85;64.36;99905.31;5050375;28;20518;-68
2022/09/25 05:53:00;;;;;;;3.87;2.40;;;;;;;18.88;64.18;99905.38;5050996;28;20214;-68
2022/09/25 05:55:26;;;;;;;4.33;3.00;;;;;;;18.87;64.58;99908.63;5032815;28;20556;-68
2022/09/25 05:57:52;;;;;;;3.87;2.50;;;;;;;18.84;64.74;99910.22;5050894;28;20517;-68
2022/09/25 06:00:17;;;;;;;3.80;2.40;;;;;;;18.83;64.55;99913.47;5055775;28;20168;-68
2022/09/25 06:02:43;;;;;;;3.00;2.20;;;;;;;18.82;64.64;99909.78;5054319;28;20171;-68
2022/09/25 06:05:08;;;;;;;3.33;2.40;;;;;;;18.86;64.35;99913.50;5036689;28;20185;-68
2022/09/25 06:07:34;;;;;;;4.20;3.13;;;;;;;18.87;64.37;99918.00;5036646;28;20163;-68
2022/09/25 06:10:00;;;;;;;3.23;2.40;;;;;;;18.86;64.56;99906.97;5054888;28;20211;-68
2022/09/25 06:12:28;;;;;;;5.80;2.40;;;;;;;18.85;64.49;99911.88;5053451;28;20579;-68
2022/09/25 06:14:53;;;;;;;3.73;2.50;;;;;;;18.86;65.11;99915.56;5036938;28;20176;-68
2022/09/25 06:17:19;;;;;;;4.83;2.90;;;;;;;18.86;64.52;99915.56;5054446;28;20413;-68
2022/09/25 06:19:44;;;;;;;3.70;2.60;;;;;;;18.83;64.45;99914.31;5053709;28;20257;-68
2022/09/25 06:22:10;;;;;;;3.53;2.50;;;;;;;18.84;64.49;99920.84;5055245;28;20203;-68
2022/09/25 06:24:35;;;;;;;3.30;2.47;;;;;;;18.85;64.39;99923.31;5053295;28;20224;-68
2022/09/25 06:27:00;;;;;;;4.47;2.87;;;;;;;18.82;64.55;99918.34;5053392;28;20171;-68
2022/09/25 06:29:26;;;;;;;5.57;2.40;;;;;;;18.86;64.36;99918.41;5053780;28;20529;-68
2022/09/25 06:31:52;;;;;;;3.27;2.40;;;;;;;18.87;64.51;99917.19;5036770;28;20195;-68
2022/09/25 06:34:18;;;;;;;4.23;2.73;;;;;;;18.87;64.24;99920.88;5036774;28;20237;-68
2022/09/25 06:36:43;;;;;;;3.73;2.20;;;;;;;18.85;64.41;99917.59;5053110;28;20168;-68
2022/09/25 06:39:09;;;;;;;3.10;2.20;;;;;;;18.85;64.41;99926.16;5053890;28;20179;-68
2022/09/25 06:41:35;;;;;;;4.57;2.60;;;;;;;18.86;64.28;99930.66;5036748;28;20175;-68
2022/09/25 06:44:01;;;;;;;2.70;2.10;;;;;;;18.84;64.82;99927.38;5054760;28;20241;-68
2022/09/25 06:46:26;;;;;;;3.27;2.30;;;;;;;18.83;64.70;99924.91;5052819;28;20829;-68
2022/09/25 06:48:53;;;;;;;3.33;2.47;;;;;;;18.84;64.54;99927.38;5054406;28;20194;-68
2022/09/25 06:51:19;;;;;;;3.30;2.60;;;;;;;18.88;64.28;99921.69;5053040;28;20219;-68
2022/09/25 06:53:44;;;;;;;3.97;2.40;;;;;;;18.88;64.30;99921.69;5053959;28;20674;-68
2022/09/25 06:56:09;;;;;;;3.23;2.40;;;;;;;18.91;64.10;99920.94;5052785;28;20425;-68
2022/09/25 06:58:35;;;;;;;3.13;2.30;;;;;;;18.89;64.30;99917.63;5052302;28;20175;-68
2022/09/25 07:01:00;;;;;;;3.73;2.30;;;;;;;18.92;64.00;99922.56;5053595;28;20558;-68
2022/09/25 07:03:44;;;;;;;3.57;2.17;;;;;;;18.94;64.15;99928.69;5052509;28;20168;-68
2022/09/25 07:06:18;;;;;;;3.60;2.37;;;;;;;18.91;64.25;99921.72;5052663;28;20195;-68
2022/09/25 07:08:43;;;;;;;2.63;1.83;;;;;;;18.95;64.21;99927.47;5052018;28;20421;-68
2022/09/25 07:11:11;;;;;;;3.67;2.23;;;;;;;18.93;64.07;99925.03;5053470;28;20481;-68
2022/09/25 07:13:37;;;;;;;4.10;2.20;;;;;;;18.94;64.15;99925.84;5052016;28;20180;-68
2022/09/25 07:16:06;;;;;;;3.77;2.40;;;;;;;18.94;64.15;99926.69;5053441;28;20476;-68
2022/09/25 07:18:32;;;;;;;3.80;2.53;;;;;;;18.96;63.85;99923.44;5052578;28;20221;-68
2022/09/25 07:21:08;;;;;;;3.27;2.37;;;;;;;18.98;63.92;99926.72;5035512;28;20411;-68
2022/09/25 07:23:34;;;;;;;3.80;2.50;;;;;;;18.98;64.02;99924.69;5053801;28;20207;-68
2022/09/25 07:26:13;;;;;;;3.70;2.43;;;;;;;18.96;64.28;99917.72;5052040;28;20908;-68
2022/09/25 07:28:39;;;;;;;3.80;2.70;;;;;;;18.96;64.09;99932.81;5052323;28;20416;-68
2022/09/25 07:31:14;;;;;;;3.50;2.43;;;;;;;18.98;63.98;99923.84;5052878;28;20849;-68
2022/09/25 07:33:39;;;;;;;3.70;2.30;;;;;;;19.00;63.95;99925.09;5053656;28;20967;-68
2022/09/25 07:36:05;;;;;;;3.90;2.67;;;;;;;19.00;63.93;99930.81;5051828;28;20413;-68
2022/09/25 07:38:31;;;;;;;3.03;2.43;;;;;;;18.99;63.93;99928.34;5033365;28;20538;-68
2022/09/25 07:40:56;;;;;;;3.40;2.40;;;;;;;19.00;64.04;99927.13;5050608;28;20179;-68
2022/09/25 07:43:22;;;;;;;2.97;2.20;;;;;;;19.02;63.83;99928.38;5050786;28;20179;-68
2022/09/25 07:45:53;;;;;;;3.93;2.63;;;;;;;19.01;64.16;99928.78;5049317;28;20482;-68
2022/09/25 07:48:22;;;;;;;3.30;2.40;;;;;;;18.99;63.92;99923.47;5033212;28;20194;-68
2022/09/25 07:50:49;;;;;;;3.70;2.50;;;;;;;18.96;64.37;99924.22;5033827;28;20418;-68
2022/09/25 07:53:17;;;;;;;3.27;2.33;;;;;;;18.98;63.94;99921.81;5033959;28;20450;-68
2022/09/25 07:55:46;;;;;;;3.33;2.40;;;;;;;18.99;64.01;99929.19;5052086;28;20425;-68
2022/09/25 07:58:11;;;;;;;3.00;2.03;;;;;;;19.00;64.06;99927.97;5051200;28;20972;-68
2022/09/25 08:00:39;;;;;;;3.10;2.30;;;;;;;18.99;64.28;99922.63;5051139;28;20418;-68
2022/09/25 08:03:04;;;;;;;3.17;2.37;;;;;;;19.00;63.83;99919.38;5034503;28;20164;-68
2022/09/25 08:05:29;;;;;;;3.77;2.57;;;;;;;19.00;63.86;99922.25;5051738;28;20423;-68
2022/09/25 08:07:55;;;;;;;2.40;1.90;;;;;;;18.97;64.06;99925.88;5050881;28;20171;-68
2022/09/25 08:10:20;;;;;;;3.47;2.43;;;;;;;18.97;64.09;99927.94;5050587;28;20623;-68
2022/09/25 08:12:46;;;;;;;3.73;2.23;;;;;;;18.97;64.17;99920.16;5051702;28;20200;-68
2022/09/25 08:15:13;;;;;;;3.50;2.50;;;;;;;18.96;63.88;99927.09;5050945;28;20175;-68
2022/09/25 08:17:39;;;;;;;2.80;2.30;;;;;;;18.97;63.88;99931.59;5050444;28;20156;-68
2022/09/25 08:20:05;;;;;;;4.17;2.67;;;;;;;18.95;64.18;99930.34;5050738;28;20747;-68
2022/09/25 08:22:30;;;;;;;3.23;2.13;;;;;;;18.97;64.05;99936.50;5050395;28;20218;-68
2022/09/25 08:24:56;;;;;;;3.50;2.30;;;;;;;18.96;64.04;99932.81;5050746;28;20419;-68
2022/09/25 08:27:21;;;;;;;3.20;2.27;;;;;;;18.96;64.26;99923.44;5051115;28;20172;-68
2022/09/25 08:29:47;;;;;;;4.10;2.40;;;;;;;18.96;64.13;99924.22;5050463;28;20168;-68
2022/09/25 08:32:12;;;;;;;3.40;2.20;;;;;;;18.96;64.12;99929.97;5052028;28;20196;-68
2022/09/25 08:34:37;;;;;;;2.97;2.10;;;;;;;18.97;64.33;99927.94;5052022;28;20175;-68
2022/09/25 08:37:03;;;;;;;3.43;2.03;;;;;;;18.96;64.01;99929.16;5049961;28;20221;-68
2022/09/25 08:39:28;;;;;;;4.83;2.30;;;;;;;18.96;64.11;99929.97;5048228;28;20171;-68
2022/09/25 08:41:54;;;;;;;3.97;2.97;;;;;;;18.95;64.14;99934.03;5048179;28;20160;-68
2022/09/25 08:44:39;;;;;;;3.00;2.30;;;;;;;18.96;64.15;99935.69;5015640;28;20175;-68
2022/09/25 08:50:02;;;;;;;3.60;2.67;;;;;;;18.98;64.20;99938.97;5028147;28;20445;-68
2022/09/25 08:52:29;;;;;;;3.00;1.77;;;;;;;18.98;64.02;99933.25;5030578;28;20454;-68
2022/09/25 08:54:55;;;;;;;3.33;2.30;;;;;;;19.00;64.07;99930.81;5032225;28;20766;-68
2022/09/25 08:57:27;;;;;;;4.20;2.47;;;;;;;19.02;63.83;99934.09;5029999;28;20400;-68
2022/09/25 08:59:55;;;;;;;3.10;2.20;;;;;;;19.01;64.13;99929.59;5030930;28;20248;-68
2022/09/25 09:02:22;;;;;;;3.20;2.20;;;;;;;19.02;63.93;99928.38;5014164;28;20890;-68
2022/09/25 09:04:55;;;;;;;2.50;1.90;;;;;;;19.03;64.09;99924.31;5046860;28;20427;-68
2022/09/25 09:07:41;;;;;;;3.77;2.40;;;;;;;19.02;64.11;99922.66;5016326;28;20422;-68
2022/09/25 09:10:33;;;;;;;3.17;2.40;;;;;;;19.04;64.09;99925.13;5049221;28;20532;-68
2022/09/25 09:13:20;;;;;;;3.57;2.27;;;;;;;19.06;63.72;99923.53;5049760;28;20900;-68
2022/09/25 09:15:50;;;;;;;3.50;2.27;;;;;;;19.08;63.60;99926.00;5048363;28;20435;-68
2022/09/25 09:18:21;;;;;;;2.87;2.20;;;;;;;19.07;63.78;99930.06;5049488;28;20533;-68
2022/09/25 09:20:58;;;;;;;3.60;2.93;;;;;;;19.07;63.77;99924.34;5049265;28;20426;-68
2022/09/25 09:23:29;;;;;;;3.90;2.70;;;;;;;19.06;64.00;99917.78;5049914;28;20397;-68
2022/09/25 09:26:00;;;;;;;3.50;2.03;;;;;;;19.08;63.64;99926.00;5032423;28;20504;-68
2022/09/25 09:28:41;;;;;;;3.20;2.17;;;;;;;19.04;63.94;99936.56;5050250;28;20438;-68
2022/09/25 09:31:17;;;;;;;3.70;2.70;;;;;;;19.05;63.97;99935.34;5049794;28;20414;-68
2022/09/25 09:33:58;;;;;;;4.40;2.60;;;;;;;19.05;64.00;99930.47;5017141;28;20432;-68
2022/09/25 09:36:51;;;;;;;3.43;2.27;;;;;;;19.10;63.68;99926.41;5048545;28;20436;-68
2022/09/25 09:39:32;;;;;;;3.90;2.40;;;;;;;19.13;63.94;99929.34;5034527;28;20418;-68
2022/09/25 09:42:00;;;;;;;4.30;2.57;;;;;;;19.09;64.06;99928.47;5050255;28;20430;-68
2022/09/25 09:44:38;;;;;;;3.40;2.40;;;;;;;19.06;63.97;99925.56;5048783;28;20946;-68
2022/09/25 09:47:07;;;;;;;3.60;2.53;;;;;;;19.10;63.90;99927.25;5048471;28;20876;-68
2022/09/25 09:49:46;;;;;;;3.07;2.33;;;;;;;19.09;63.72;99924.78;5050146;28;20425;-68
2022/09/25 09:52:35;;;;;;;3.40;2.10;;;;;;;19.10;63.98;99918.66;5031773;28;20457;-68
2022/09/25 09:55:18;;;;;;;3.30;2.33;;;;;;;19.10;63.87;99924.38;5049833;28;20453;-68
2022/09/25 09:57:46;;;;;;;3.90;2.40;;;;;;;19.07;64.05;99925.16;5048281;28;20792;-68
2022/09/25 10:00:16;;;;;;;3.37;2.50;;;;;;;19.06;63.64;99926.38;5016113;28;20418;-68
2022/09/25 10:03:08;;;;;;;2.93;2.10;;;;;;;19.08;64.22;99929.69;5031769;28;20414;-68
2022/09/25 10:05:36;;;;;;;3.57;2.37;;;;;;;19.09;63.89;99931.31;5027531;28;20431;-68
2022/09/25 10:08:02;;;;;;;3.07;2.10;;;;;;;19.11;63.75;99928.09;5027763;28;20786;-68
2022/09/25 10:10:39;;;;;;;2.80;2.00;;;;;;;19.10;63.93;99924.38;5030374;28;20469;-68
2022/09/25 10:13:10;;;;;;;2.87;2.20;;;;;;;19.10;63.91;99918.66;5030410;28;20197;-68
2022/09/25 10:15:51;;;;;;;4.57;2.33;;;;;;;19.09;63.68;99927.63;5030165;28;20422;-68
2022/09/25 10:18:18;;;;;;;3.43;2.23;;;;;;;19.09;63.89;99922.75;5047136;28;20828;-68
2022/09/25 10:20:50;;;;;;;2.77;1.87;;;;;;;19.08;63.71;99929.69;5049389;28;20418;-68
2022/09/25 10:23:32;;;;;;;3.63;2.50;;;;;;;19.08;63.99;99926.81;5048172;28;20421;-68
2022/09/25 10:25:57;;;;;;;3.40;1.90;;;;;;;19.09;63.91;99924.78;5048881;28;20421;-68
2022/09/25 10:28:31;;;;;;;3.23;2.40;;;;;;;19.09;63.90;99919.88;5048919;28;20418;-68
2022/09/25 10:30:57;;;;;;;3.67;2.63;;;;;;;19.10;63.71;99920.69;5049495;28;20697;-68
2022/09/25 10:33:27;;;;;;;3.13;2.40;;;;;;;19.08;63.95;99921.09;5033116;28;20537;-68
2022/09/25 10:35:53;;;;;;;3.60;2.50;;;;;;;19.08;63.84;99915.38;5050384;28;20414;-68
2022/09/25 10:38:31;;;;;;;3.33;2.20;;;;;;;19.11;63.75;99916.63;5048602;28;20421;-68
2022/09/25 10:41:07;;;;;;;2.83;2.07;;;;;;;19.10;64.02;99918.66;5048958;28;20409;-68
2022/09/25 10:43:32;;;;;;;3.50;2.30;;;;;;;19.11;64.25;99920.31;5048326;28;20429;-68
2022/09/25 10:46:05;;;;;;;4.07;2.53;;;;;;;19.12;63.70;99926.84;5052248;28;20395;-68
2022/09/25 10:51:19;;;;;;;3.80;2.60;;;;;;;19.12;63.94;99924.81;5052302;28;21014;-68
2022/09/25 10:53:46;;;;;;;3.70;2.03;;;;;;;19.12;63.87;99919.06;5051874;28;20422;-68
2022/09/25 10:56:17;;;;;;;3.00;2.03;;;;;;;19.11;64.08;99914.56;5052311;28;20414;-68
2022/09/25 10:58:51;;;;;;;4.10;2.43;;;;;;;19.12;63.63;99921.94;5052721;28;20444;-68
2022/09/25 11:01:16;;;;;;;3.97;2.60;;;;;;;19.11;64.33;99919.50;5039108;28;20417;-68
2022/09/25 11:03:54;;;;;;;2.80;2.00;;;;;;;19.11;63.91;99920.31;5054222;28;20430;-68
2022/09/25 11:06:31;;;;;;;3.00;2.00;;;;;;;19.09;63.86;99922.75;5051591;28;20175;-68
2022/09/25 11:09:11;;;;;;;3.33;2.17;;;;;;;19.12;64.13;99926.84;5032462;28;20427;-68
2022/09/25 11:11:38;;;;;;;3.73;2.43;;;;;;;19.11;64.30;99920.31;5031875;28;20498;-68
2022/09/25 11:14:04;;;;;;;4.90;2.30;;;;;;;19.13;63.94;99929.34;5031743;28;20415;-68
2022/09/25 11:16:49;;;;;;;3.10;2.17;;;;;;;19.11;63.95;99926.03;5032865;28;20917;-68
2022/09/25 11:19:31;;;;;;;2.93;2.20;;;;;;;19.13;63.84;99925.63;5033499;28;20395;-68
2022/09/25 11:21:59;;;;;;;3.47;2.53;;;;;;;19.13;63.94;99928.50;5016505;28;20395;-68
2022/09/25 11:24:27;;;;;;;2.80;2.23;;;;;;;19.14;63.68;99916.66;5031936;28;20478;-68
2022/09/25 11:27:09;;;;;;;3.13;2.30;;;;;;;19.14;63.86;99921.56;5032762;28;20429;-68
2022/09/25 11:29:34;;;;;;;4.40;2.60;;;;;;;19.17;64.26;99915.06;5016129;28;20946;-68
2022/09/25 11:32:06;;;;;;;3.67;2.23;;;;;;;19.14;63.56;99918.69;5032888;28;20553;-68
2022/09/25 11:34:54;;;;;;;3.50;2.30;;;;;;;19.14;63.73;99918.69;5032035;28;20177;-68
2022/09/25 11:37:39;;;;;;;3.83;2.63;;;;;;;19.13;64.12;99917.88;5031341;28;20506;-68
2022/09/25 11:44:03;;;;;;;3.20;2.40;;;;;;;19.15;63.66;99915.44;5051083;28;20413;-68
2022/09/25 11:46:38;;;;;;;3.00;2.13;;;;;;;19.13;64.08;99909.31;5052403;28;20406;-68
2022/09/25 11:49:30;;;;;;;2.87;2.23;;;;;;;19.15;64.08;99904.00;5050914;28;20849;-68
2022/09/25 11:52:04;;;;;;;3.10;2.23;;;;;;;19.16;63.73;99899.09;5051584;28;20453;-68
2022/09/25 11:54:58;;;;;;;3.20;2.30;;;;;;;19.16;63.75;99899.09;5051217;28;20422;-68
2022/09/25 11:57:37;;;;;;;3.33;2.20;;;;;;;19.16;63.63;99902.78;5050623;28;20418;-68
2022/09/25 12:00:25;;;;;;;4.33;2.40;;;;;;;19.16;63.76;99896.25;5050880;28;20414;-68
2022/09/25 12:02:56;;;;;;;4.33;2.23;;;;;;;19.18;63.79;99899.53;5034404;28;20413;-68
2022/09/25 12:05:48;;;;;;;3.73;2.60;;;;;;;19.15;63.98;99900.28;5051333;28;20425;-68